Главная страница
METAR-TAF:

METAR-TAF

Аэропорты :

Франклин округ, Вермонт, США

широта: 44-56-25N, долгота: 073-05-51W, высота над уровнем моря: 69 м

Текущие метеонаблюдения

Эта сводка был подготовлена 15 минут назад, в 20:55 UTC
Ветер 7 Узел от южный с порывами до 16 Узел, изменяющийся между юго-юго-восточный и южный-юго-западный
Температура 4°C
Влажность 81%
Давление 1023 hPa
Видимость: 16.1 км
Сплошная облачность на высоте 3600 фута

METAR: KFSO 142055Z AUTO 18007G16KT 150V210 10SM OVC036 04/01 A3021 RMK AO2 T00370008

Время: 16:10 (21:10 UTC)


TAF: отсутствует

Метеонаблюдения и прогнозы для более 4000 аэропортов (сводки METAR и TAF).

Имеющиеся станции представлены на карте желтыми и красными точками.

Чтобы увидеть название станции, наведите на нее мышь.

Затем щелкните, чтобы увидеть метеонаблюдения и метеопрогнозы.

Управление картой: чтобы увеличить масштаб, щелкните зеленые кнопки с черным крестиком; чтобы уменьшить масштаб, щелкните зеленую кнопку с тире; для просмотра соседних карт щелкайте зеленые стрелки.


METAR-TAF: